Time;durP1;ratioP1;P1;durP2;ratioP2;P2;SDS_P1;SDS_P2;PMS_P1;PMS_P2;Temp;Humidity;BMP_temperature;BMP_pressure;BME280_temperature;BME280_humidity;BME280_pressure;Samples;Min_cycle;Max_cycle;Signal;HPM_P1;HPM_P2
2024/01/14 00:00:47;;;;;;;104.40;32.27;;;0.60;99.90;;;;;;5084531;27;21027;-60
2024/01/14 00:03:16;;;;;;;107.57;32.03;;;0.70;99.90;;;;;;5083869;28;20219;-60
2024/01/14 00:05:45;;;;;;;97.43;31.67;;;0.70;99.90;;;;;;5083406;28;20231;-60
2024/01/14 00:08:13;;;;;;;94.67;31.03;;;0.70;99.90;;;;;;5077557;28;20276;-61
2024/01/14 00:10:41;;;;;;;95.57;31.07;;;0.70;99.90;;;;;;5080619;28;20203;-60
2024/01/14 00:13:11;;;;;;;88.73;30.80;;;0.70;99.90;;;;;;5082529;28;20250;-60
2024/01/14 00:15:39;;;;;;;91.83;31.63;;;0.70;99.90;;;;;;5083591;28;20227;-60
2024/01/14 00:18:08;;;;;;;90.90;31.27;;;0.70;99.90;;;;;;5081098;28;20835;-61
2024/01/14 00:20:36;;;;;;;98.13;31.93;;;0.80;99.90;;;;;;5083993;28;20918;-60
2024/01/14 00:23:05;;;;;;;101.13;30.47;;;0.80;99.90;;;;;;5083890;28;20195;-60
2024/01/14 00:25:33;;;;;;;96.27;30.70;;;0.80;99.90;;;;;;5080569;28;20195;-61
2024/01/14 00:28:03;;;;;;;89.23;31.33;;;0.80;99.90;;;;;;5081462;28;20246;-60
2024/01/14 00:30:33;;;;;;;86.00;30.20;;;0.80;99.90;;;;;;5078681;28;20232;-61
2024/01/14 00:33:01;;;;;;;96.77;30.83;;;0.80;99.90;;;;;;5082340;28;20255;-61
2024/01/14 00:35:30;;;;;;;86.63;30.17;;;0.80;99.90;;;;;;5080669;28;20562;-60
2024/01/14 00:37:59;;;;;;;95.43;31.73;;;0.80;99.90;;;;;;5078501;28;20180;-61
2024/01/14 00:40:29;;;;;;;89.83;29.47;;;0.80;99.90;;;;;;5077691;28;20322;-60
2024/01/14 00:42:57;;;;;;;94.33;31.03;;;0.90;99.90;;;;;;5077645;28;20253;-60
2024/01/14 00:45:25;;;;;;;92.37;31.57;;;0.90;99.90;;;;;;5081229;28;20223;-61
2024/01/14 00:47:55;;;;;;;86.23;30.90;;;0.90;99.90;;;;;;5079818;28;20219;-60
2024/01/14 00:50:23;;;;;;;95.70;32.03;;;0.90;99.90;;;;;;5080391;28;20310;-60
2024/01/14 00:52:52;;;;;;;87.97;30.57;;;0.90;99.90;;;;;;5075931;28;20203;-60
2024/01/14 00:55:20;;;;;;;89.77;31.87;;;0.90;99.90;;;;;;5081619;27;20219;-60
2024/01/14 00:57:48;;;;;;;89.17;30.30;;;0.90;99.90;;;;;;5082610;28;20218;-61
2024/01/14 01:00:17;;;;;;;96.13;30.67;;;1.00;99.90;;;;;;5081940;28;20222;-60
2024/01/14 01:02:45;;;;;;;86.07;29.77;;;1.00;99.90;;;;;;5080400;28;20227;-60
2024/01/14 01:05:15;;;;;;;86.10;29.67;;;1.00;99.90;;;;;;5080742;28;20590;-60
2024/01/14 01:07:44;;;;;;;86.90;30.27;;;1.00;99.90;;;;;;5083540;28;20219;-61
2024/01/14 01:10:12;;;;;;;87.60;28.63;;;1.00;99.90;;;;;;5086506;28;20227;-60
2024/01/14 01:12:40;;;;;;;87.53;30.07;;;1.00;99.90;;;;;;5079946;28;20219;-61
2024/01/14 01:15:10;;;;;;;88.83;29.47;;;1.00;99.90;;;;;;5081485;28;20242;-60
2024/01/14 01:17:38;;;;;;;86.10;29.47;;;1.00;99.90;;;;;;5082424;28;20254;-60
2024/01/14 01:20:08;;;;;;;87.43;29.10;;;1.00;99.90;;;;;;5078398;28;20249;-60
2024/01/14 01:22:38;;;;;;;86.87;29.27;;;1.00;99.90;;;;;;5077193;28;20763;-60
2024/01/14 01:25:07;;;;;;;95.10;30.03;;;1.00;99.90;;;;;;5084357;28;20213;-60
2024/01/14 01:27:35;;;;;;;86.67;29.53;;;1.00;99.90;;;;;;5078515;28;20219;-60
2024/01/14 01:30:04;;;;;;;83.80;29.77;;;1.00;99.90;;;;;;5081368;28;20316;-60
2024/01/14 01:32:33;;;;;;;81.73;28.87;;;0.90;99.90;;;;;;5080154;28;20239;-60
2024/01/14 01:35:01;;;;;;;88.47;30.23;;;0.90;99.90;;;;;;5081890;28;20192;-60
2024/01/14 01:37:30;;;;;;;85.40;30.23;;;0.90;99.90;;;;;;5080836;28;20199;-60
2024/01/14 01:39:59;;;;;;;85.10;29.13;;;1.00;99.90;;;;;;5079863;28;20227;-60
2024/01/14 01:42:28;;;;;;;92.90;30.00;;;1.00;99.90;;;;;;5080707;28;20239;-60
2024/01/14 01:44:57;;;;;;;85.77;28.13;;;0.90;99.90;;;;;;5079733;28;20218;-61
2024/01/14 01:47:25;;;;;;;88.00;30.43;;;1.00;99.90;;;;;;5080998;28;20250;-60
2024/01/14 01:49:54;;;;;;;92.23;30.63;;;1.00;99.90;;;;;;5081821;28;20187;-60
2024/01/14 01:52:23;;;;;;;86.60;29.37;;;1.00;99.90;;;;;;5082292;28;20232;-60
2024/01/14 01:54:54;;;;;;;86.70;29.40;;;1.00;99.90;;;;;;5078562;28;20220;-61
2024/01/14 01:57:25;;;;;;;75.87;28.10;;;1.00;99.90;;;;;;5083227;28;20288;-60
2024/01/14 01:59:53;;;;;;;75.70;28.30;;;1.00;99.90;;;;;;5081126;28;20714;-60
2024/01/14 02:02:23;;;;;;;81.73;29.20;;;1.00;99.90;;;;;;5082692;28;20238;-60
2024/01/14 02:04:51;;;;;;;85.83;29.90;;;1.00;99.90;;;;;;5082249;28;20193;-60
2024/01/14 02:07:20;;;;;;;80.43;28.20;;;1.00;99.90;;;;;;5079889;28;20280;-62
2024/01/14 02:09:49;;;;;;;76.23;28.70;;;1.00;99.90;;;;;;5080882;28;20326;-60
2024/01/14 02:12:17;;;;;;;78.73;28.40;;;1.10;99.90;;;;;;5085445;28;20231;-60
2024/01/14 02:14:47;;;;;;;77.80;29.10;;;1.10;99.90;;;;;;5083385;28;20219;-61
2024/01/14 02:17:16;;;;;;;79.00;27.93;;;1.10;99.90;;;;;;5086692;28;20290;-60
2024/01/14 02:19:44;;;;;;;70.43;26.37;;;1.10;99.90;;;;;;5087382;28;20190;-61
2024/01/14 02:22:16;;;;;;;73.23;28.37;;;1.10;99.90;;;;;;5085835;28;20314;-61
2024/01/14 02:24:46;;;;;;;71.43;26.87;;;1.10;99.90;;;;;;5084487;28;20223;-60
2024/01/14 02:27:15;;;;;;;77.03;28.27;;;1.10;99.90;;;;;;5081871;28;20216;-61
2024/01/14 02:29:45;;;;;;;71.27;26.37;;;1.00;99.90;;;;;;5081970;28;20227;-60
2024/01/14 02:32:13;;;;;;;69.83;26.80;;;1.00;99.90;;;;;;5078371;28;20216;-60
2024/01/14 02:34:42;;;;;;;72.70;26.93;;;1.00;99.90;;;;;;5081184;28;20192;-60
2024/01/14 02:37:10;;;;;;;76.20;26.53;;;1.00;99.90;;;;;;5083516;28;20314;-61
2024/01/14 02:39:39;;;;;;;82.03;28.70;;;1.00;99.90;;;;;;5082341;28;20230;-60
2024/01/14 02:42:08;;;;;;;73.90;26.07;;;1.00;99.90;;;;;;5082903;28;20234;-60
2024/01/14 02:44:36;;;;;;;73.77;27.50;;;1.00;99.90;;;;;;5083333;28;20247;-60
2024/01/14 02:47:05;;;;;;;74.53;27.93;;;1.00;99.90;;;;;;5082901;28;20223;-58
2024/01/14 02:49:33;;;;;;;71.00;26.50;;;1.00;99.90;;;;;;5080499;28;20199;-60
2024/01/14 02:52:02;;;;;;;74.13;26.63;;;1.00;99.90;;;;;;5081544;28;20218;-61
2024/01/14 02:54:31;;;;;;;73.90;26.97;;;1.00;99.90;;;;;;5080132;28;20714;-61
2024/01/14 02:56:59;;;;;;;69.33;25.70;;;1.00;99.90;;;;;;5086485;28;20226;-61
2024/01/14 02:59:29;;;;;;;71.43;26.47;;;1.00;99.90;;;;;;5084292;27;20250;-60
2024/01/14 03:01:57;;;;;;;72.73;25.63;;;1.00;99.90;;;;;;5083683;28;20184;-61
2024/01/14 03:04:25;;;;;;;73.13;26.47;;;1.00;99.90;;;;;;5082471;28;20230;-60
2024/01/14 03:06:54;;;;;;;74.90;27.33;;;1.00;99.90;;;;;;5083689;28;20223;-59
2024/01/14 03:09:22;;;;;;;72.30;27.43;;;1.00;99.90;;;;;;5082605;28;20227;-61
2024/01/14 03:11:51;;;;;;;70.07;25.90;;;1.00;99.90;;;;;;5081035;28;20317;-61
2024/01/14 03:14:19;;;;;;;65.90;25.67;;;1.00;99.90;;;;;;5080335;28;20196;-60
2024/01/14 03:16:49;;;;;;;64.20;24.63;;;1.00;99.90;;;;;;5086208;28;20194;-60
2024/01/14 03:19:17;;;;;;;68.90;25.90;;;1.00;99.90;;;;;;5080834;28;20219;-61
2024/01/14 03:21:46;;;;;;;69.27;25.33;;;1.00;99.90;;;;;;5081654;27;20220;-60
2024/01/14 03:24:14;;;;;;;67.50;25.03;;;1.00;99.90;;;;;;5083360;28;20223;-60
2024/01/14 03:26:42;;;;;;;73.63;26.70;;;1.00;99.90;;;;;;5083022;28;20302;-60
2024/01/14 03:29:11;;;;;;;60.27;24.63;;;1.00;99.90;;;;;;5083365;28;20192;-60
2024/01/14 03:31:39;;;;;;;73.27;25.07;;;1.00;99.90;;;;;;5080260;28;20211;-61
2024/01/14 03:34:09;;;;;;;74.13;25.23;;;1.10;99.90;;;;;;5083733;27;20226;-61
2024/01/14 03:36:37;;;;;;;69.00;25.77;;;1.10;99.90;;;;;;5083838;28;20230;-61
2024/01/14 03:39:06;;;;;;;64.10;25.37;;;1.10;99.90;;;;;;5081280;28;20230;-61
2024/01/14 03:41:35;;;;;;;62.43;24.27;;;1.00;99.90;;;;;;5076996;28;20216;-61
2024/01/14 03:44:03;;;;;;;73.10;25.83;;;1.00;99.90;;;;;;5081164;28;20192;-60
2024/01/14 03:46:31;;;;;;;75.10;26.47;;;1.10;99.90;;;;;;5084794;28;20306;-61
2024/01/14 03:48:59;;;;;;;72.07;25.30;;;1.00;99.90;;;;;;5082334;28;20227;-61
2024/01/14 03:51:30;;;;;;;76.53;25.60;;;1.10;99.90;;;;;;5084467;27;20319;-61
2024/01/14 03:53:58;;;;;;;71.50;25.87;;;1.00;99.90;;;;;;5080288;28;20300;-61
2024/01/14 03:56:27;;;;;;;74.80;26.93;;;1.00;99.90;;;;;;5080475;28;20238;-61
2024/01/14 03:58:55;;;;;;;65.97;25.63;;;1.00;99.90;;;;;;5079676;28;20203;-61
2024/01/14 04:01:25;;;;;;;71.90;25.13;;;1.00;99.90;;;;;;5084047;28;20227;-61
2024/01/14 04:03:53;;;;;;;65.37;25.67;;;1.10;99.90;;;;;;5082086;28;20425;-61
2024/01/14 04:06:23;;;;;;;63.40;25.17;;;1.10;99.90;;;;;;5082341;28;20223;-61
2024/01/14 04:08:53;;;;;;;67.77;25.80;;;1.10;99.90;;;;;;5081218;28;20231;-61
2024/01/14 04:11:21;;;;;;;72.80;26.27;;;1.10;99.90;;;;;;5083927;28;20654;-61
2024/01/14 04:13:49;;;;;;;67.67;25.30;;;1.10;99.90;;;;;;5078968;28;20219;-61
2024/01/14 04:16:17;;;;;;;74.17;25.60;;;1.00;99.90;;;;;;5081996;28;20617;-61
2024/01/14 04:18:46;;;;;;;67.40;25.47;;;1.00;99.90;;;;;;5086419;28;20229;-61
2024/01/14 04:21:21;;;;;;;58.37;23.30;;;1.00;99.90;;;;;;5082457;28;20214;-61
2024/01/14 04:23:50;;;;;;;66.63;23.83;;;1.00;99.90;;;;;;5079093;28;20257;-61
2024/01/14 04:26:21;;;;;;;67.13;24.27;;;1.10;99.90;;;;;;5083048;28;20528;-61
2024/01/14 04:28:50;;;;;;;60.73;22.87;;;1.10;99.90;;;;;;5082141;28;20195;-61
2024/01/14 04:31:18;;;;;;;60.97;24.03;;;1.10;99.90;;;;;;5081885;28;20234;-61
2024/01/14 04:33:47;;;;;;;67.27;24.47;;;1.10;99.90;;;;;;5083690;28;20232;-61
2024/01/14 04:36:17;;;;;;;60.00;22.40;;;1.00;99.90;;;;;;5083013;28;20237;-61
2024/01/14 04:38:45;;;;;;;65.70;24.33;;;1.00;99.90;;;;;;5080677;28;20637;-61
2024/01/14 04:41:13;;;;;;;64.83;23.47;;;1.00;99.90;;;;;;5080555;28;20203;-61
2024/01/14 04:43:43;;;;;;;63.83;24.47;;;1.00;99.90;;;;;;5078686;28;20639;-61
2024/01/14 04:46:11;;;;;;;68.83;24.63;;;1.00;99.90;;;;;;5082535;28;20215;-61
2024/01/14 04:48:40;;;;;;;64.93;23.90;;;1.00;99.90;;;;;;5079362;28;20714;-61
2024/01/14 04:51:08;;;;;;;68.33;24.60;;;1.00;99.90;;;;;;5079432;28;20682;-61
2024/01/14 04:53:37;;;;;;;65.03;23.87;;;1.00;99.90;;;;;;5081360;28;20215;-61
2024/01/14 04:56:07;;;;;;;66.27;24.17;;;1.00;99.90;;;;;;5081836;28;20203;-61
2024/01/14 04:58:36;;;;;;;74.20;26.73;;;1.00;99.90;;;;;;5083068;28;20195;-61
2024/01/14 05:01:06;;;;;;;85.00;28.30;;;1.00;99.90;;;;;;5083118;28;20219;-61
2024/01/14 05:03:34;;;;;;;79.03;27.13;;;0.90;99.90;;;;;;5079129;28;20226;-61
2024/01/14 05:06:02;;;;;;;76.73;26.43;;;0.90;99.90;;;;;;5082564;28;20238;-61
2024/01/14 05:08:31;;;;;;;73.77;25.87;;;0.80;99.90;;;;;;5078622;28;20227;-61
2024/01/14 05:10:59;;;;;;;78.13;26.90;;;0.80;99.90;;;;;;5082218;28;20202;-61
2024/01/14 05:13:27;;;;;;;78.93;26.97;;;0.80;99.90;;;;;;5079448;28;20601;-61
2024/01/14 05:15:56;;;;;;;81.07;26.83;;;0.80;99.90;;;;;;5077466;28;20233;-61
2024/01/14 05:18:26;;;;;;;73.57;26.00;;;0.80;99.90;;;;;;5082946;28;20220;-61
2024/01/14 05:20:55;;;;;;;77.97;26.23;;;0.70;99.90;;;;;;5081401;28;20705;-61
2024/01/14 05:23:23;;;;;;;70.27;26.27;;;0.70;99.90;;;;;;5081731;28;20230;-61
2024/01/14 05:25:51;;;;;;;86.17;26.33;;;0.80;99.90;;;;;;5080641;28;20196;-61
2024/01/14 05:28:19;;;;;;;79.30;27.57;;;0.80;99.90;;;;;;5078871;28;20218;-61
2024/01/14 05:30:48;;;;;;;70.13;25.53;;;0.80;99.90;;;;;;5083596;28;20215;-61
2024/01/14 05:33:16;;;;;;;74.80;25.33;;;0.80;99.90;;;;;;5081429;28;20689;-61
2024/01/14 05:35:46;;;;;;;69.37;25.53;;;0.80;99.90;;;;;;5081943;28;20809;-61
2024/01/14 05:38:15;;;;;;;76.83;26.40;;;0.80;99.90;;;;;;5078199;28;20305;-61
2024/01/14 05:40:43;;;;;;;69.80;26.07;;;0.80;99.90;;;;;;5078660;28;20498;-61
2024/01/14 05:43:12;;;;;;;72.43;25.60;;;0.80;99.90;;;;;;5078491;28;20218;-61
2024/01/14 05:45:41;;;;;;;75.47;27.17;;;0.80;99.90;;;;;;5081671;28;20219;-61
2024/01/14 05:48:09;;;;;;;79.47;26.67;;;0.80;99.90;;;;;;5086306;28;20227;-61
2024/01/14 05:50:37;;;;;;;72.17;26.57;;;0.70;99.90;;;;;;5079995;28;20702;-61
2024/01/14 05:53:07;;;;;;;69.70;24.70;;;0.80;99.90;;;;;;5081965;28;20211;-60
2024/01/14 05:55:35;;;;;;;78.90;26.13;;;0.80;99.90;;;;;;5087290;28;20605;-61
2024/01/14 05:58:04;;;;;;;72.37;26.10;;;0.70;99.90;;;;;;5082595;28;20829;-61
2024/01/14 06:00:32;;;;;;;69.27;24.07;;;0.70;99.90;;;;;;5086290;28;20228;-61
2024/01/14 06:03:01;;;;;;;76.83;25.50;;;0.80;99.90;;;;;;5082852;28;20215;-61
2024/01/14 06:05:29;;;;;;;70.77;25.50;;;0.70;99.90;;;;;;5085166;28;20714;-61
2024/01/14 06:07:57;;;;;;;67.13;24.10;;;0.70;99.90;;;;;;5083621;28;20224;-61
2024/01/14 06:10:27;;;;;;;67.07;24.50;;;0.70;99.90;;;;;;5085844;28;20231;-60
2024/01/14 06:12:55;;;;;;;75.63;25.13;;;0.70;99.90;;;;;;5086601;28;20223;-60
2024/01/14 06:15:24;;;;;;;68.33;24.70;;;0.70;99.90;;;;;;5084177;28;20219;-60
2024/01/14 06:17:52;;;;;;;74.93;25.40;;;0.70;99.90;;;;;;5085174;28;20207;-60
2024/01/14 06:20:20;;;;;;;71.57;24.90;;;0.70;99.90;;;;;;5083404;28;20241;-61
2024/01/14 06:22:49;;;;;;;71.80;24.87;;;0.70;99.90;;;;;;5083722;28;20207;-60
2024/01/14 06:25:17;;;;;;;76.03;26.47;;;0.70;99.90;;;;;;5079210;28;20306;-60
2024/01/14 06:27:47;;;;;;;75.60;27.57;;;0.70;99.90;;;;;;5084769;28;20693;-60
2024/01/14 06:30:15;;;;;;;69.63;25.87;;;0.70;99.90;;;;;;5084832;28;20215;-60
2024/01/14 06:32:44;;;;;;;76.23;26.30;;;0.70;99.90;;;;;;5082665;28;20314;-60
2024/01/14 06:35:12;;;;;;;68.17;24.10;;;0.70;99.90;;;;;;5080411;28;20188;-60
2024/01/14 06:37:43;;;;;;;69.63;24.90;;;0.60;99.90;;;;;;5083311;28;20550;-60
2024/01/14 06:40:12;;;;;;;76.63;25.43;;;0.70;99.90;;;;;;5080349;28;20227;-60
2024/01/14 06:42:52;;;;;;;69.60;25.67;;;0.70;99.90;;;;;;5085825;28;20563;-60
2024/01/14 06:45:20;;;;;;;72.40;25.50;;;0.60;99.90;;;;;;5085308;28;20219;-62
2024/01/14 06:47:49;;;;;;;62.93;24.27;;;0.60;99.90;;;;;;5085894;28;20301;-60
2024/01/14 06:50:17;;;;;;;77.03;27.03;;;0.60;99.90;;;;;;5087688;28;20192;-61
2024/01/14 06:52:46;;;;;;;72.57;26.03;;;0.50;99.90;;;;;;5088262;28;20199;-60
2024/01/14 06:55:16;;;;;;;78.47;26.03;;;0.50;99.90;;;;;;5085919;28;20214;-60
2024/01/14 06:57:44;;;;;;;82.60;25.93;;;0.50;99.90;;;;;;5086008;28;20264;-60
2024/01/14 07:00:15;;;;;;;77.67;25.67;;;0.50;99.90;;;;;;5085421;28;20565;-60
2024/01/14 07:02:43;;;;;;;78.63;26.03;;;0.50;99.90;;;;;;5083095;28;20214;-60
2024/01/14 07:05:11;;;;;;;64.10;24.63;;;0.50;99.90;;;;;;5086133;28;20188;-60
2024/01/14 07:07:40;;;;;;;79.53;25.63;;;0.50;99.90;;;;;;5086862;28;20223;-60
2024/01/14 07:10:10;;;;;;;75.57;26.13;;;0.50;99.90;;;;;;5084331;28;20223;-60
2024/01/14 07:12:38;;;;;;;74.20;26.40;;;0.50;99.90;;;;;;5085839;28;21553;-60
2024/01/14 07:15:08;;;;;;;71.67;26.33;;;0.50;99.90;;;;;;5085967;28;20571;-60
2024/01/14 07:17:37;;;;;;;74.77;25.40;;;0.50;99.90;;;;;;5084500;28;20222;-60
2024/01/14 07:20:23;;;;;;;74.00;25.20;;;0.50;99.90;;;;;;5087962;28;20257;-60
2024/01/14 07:22:52;;;;;;;80.33;27.80;;;0.50;99.90;;;;;;5087284;28;20195;-60
2024/01/14 07:25:21;;;;;;;77.97;25.63;;;0.50;99.90;;;;;;5086197;28;20690;-60
2024/01/14 07:27:49;;;;;;;75.13;26.43;;;0.50;99.90;;;;;;5086644;28;20231;-60
2024/01/14 07:30:18;;;;;;;77.83;26.83;;;0.50;99.90;;;;;;5085682;28;20260;-60
2024/01/14 07:32:48;;;;;;;73.63;25.80;;;0.50;99.90;;;;;;5087972;28;20211;-60
2024/01/14 07:35:16;;;;;;;75.63;26.20;;;0.50;99.90;;;;;;5086417;28;20239;-60
2024/01/14 07:37:45;;;;;;;83.87;27.60;;;0.40;99.90;;;;;;5086325;28;20240;-60
2024/01/14 07:40:13;;;;;;;83.30;28.20;;;0.40;99.90;;;;;;5084152;28;20223;-60
2024/01/14 07:42:42;;;;;;;70.27;25.60;;;0.40;99.90;;;;;;5084861;28;20212;-61
2024/01/14 07:45:10;;;;;;;82.17;27.33;;;0.40;99.90;;;;;;5081585;28;20228;-60
2024/01/14 07:47:38;;;;;;;79.27;28.00;;;0.40;99.90;;;;;;5081773;28;20223;-60
2024/01/14 07:50:09;;;;;;;79.37;28.63;;;0.40;99.90;;;;;;5081643;28;20196;-60
2024/01/14 07:52:38;;;;;;;71.90;25.83;;;0.40;99.90;;;;;;5083774;28;20206;-61
2024/01/14 07:55:06;;;;;;;78.33;28.03;;;0.50;99.90;;;;;;5079354;28;20227;-60
2024/01/14 07:57:35;;;;;;;68.20;26.93;;;0.40;99.90;;;;;;5078729;28;20223;-60
2024/01/14 08:00:04;;;;;;;77.97;27.43;;;0.50;99.90;;;;;;5079008;28;20291;-60
2024/01/14 08:02:33;;;;;;;72.30;25.57;;;0.40;99.90;;;;;;5082530;28;20277;-61
2024/01/14 08:05:01;;;;;;;84.97;27.83;;;0.50;99.90;;;;;;5081209;27;20219;-60
2024/01/14 08:07:31;;;;;;;73.27;27.07;;;0.50;99.90;;;;;;5082481;28;20284;-61
2024/01/14 08:10:00;;;;;;;79.80;27.27;;;0.50;99.90;;;;;;5079002;28;20218;-61
2024/01/14 08:12:28;;;;;;;70.27;26.47;;;0.50;99.90;;;;;;5081161;28;20223;-61
2024/01/14 08:14:57;;;;;;;80.07;28.80;;;0.50;99.90;;;;;;5081682;28;20235;-61
2024/01/14 08:17:26;;;;;;;74.43;27.07;;;0.50;99.90;;;;;;5083522;28;20689;-61
2024/01/14 08:19:56;;;;;;;76.57;27.00;;;0.50;99.90;;;;;;5079833;28;20713;-61
2024/01/14 08:22:24;;;;;;;81.23;27.37;;;0.60;99.90;;;;;;5076748;27;20253;-61
2024/01/14 08:24:54;;;;;;;79.60;27.07;;;0.60;99.90;;;;;;5082042;28;20229;-61
2024/01/14 08:27:23;;;;;;;75.43;27.83;;;0.60;99.90;;;;;;5083294;28;20717;-61
2024/01/14 08:29:51;;;;;;;83.73;28.53;;;0.60;99.90;;;;;;5085782;28;20227;-61
2024/01/14 08:32:20;;;;;;;76.70;28.00;;;0.60;99.90;;;;;;5082512;28;20296;-61
2024/01/14 08:34:48;;;;;;;80.30;28.83;;;0.60;99.90;;;;;;5073503;28;20203;-61
2024/01/14 08:37:16;;;;;;;81.77;27.90;;;0.70;99.90;;;;;;5079073;28;20219;-61
2024/01/14 08:39:45;;;;;;;84.40;28.83;;;0.60;99.90;;;;;;5082678;28;20224;-61
2024/01/14 08:42:15;;;;;;;83.30;27.87;;;0.70;99.90;;;;;;5079150;28;20273;-61
2024/01/14 08:44:43;;;;;;;78.20;27.63;;;0.70;99.90;;;;;;5077666;28;20576;-61
2024/01/14 08:47:12;;;;;;;73.27;27.13;;;0.70;99.90;;;;;;5082424;28;20223;-61
2024/01/14 08:49:41;;;;;;;74.43;28.03;;;0.70;99.90;;;;;;5082861;28;20198;-61
2024/01/14 08:52:11;;;;;;;77.13;27.23;;;0.70;99.90;;;;;;5079375;28;20234;-62
2024/01/14 08:54:39;;;;;;;80.30;28.13;;;0.70;99.90;;;;;;5078628;28;20211;-61
2024/01/14 08:57:10;;;;;;;66.80;27.30;;;0.70;99.90;;;;;;5083411;28;20264;-61
2024/01/14 08:59:39;;;;;;;78.10;28.80;;;0.70;99.90;;;;;;5085456;28;20211;-61
2024/01/14 09:02:08;;;;;;;71.73;27.70;;;0.70;99.90;;;;;;5078492;28;20278;-60
2024/01/14 09:04:36;;;;;;;72.93;26.17;;;0.80;99.90;;;;;;5083688;28;20196;-61
2024/01/14 09:07:04;;;;;;;68.50;27.47;;;0.70;99.90;;;;;;5080691;28;20226;-61
2024/01/14 09:09:33;;;;;;;68.00;25.33;;;0.80;99.90;;;;;;5083403;28;20622;-61
2024/01/14 09:12:02;;;;;;;71.87;26.80;;;0.80;99.90;;;;;;5084235;28;20260;-61
2024/01/14 09:14:31;;;;;;;63.90;24.60;;;0.80;99.90;;;;;;5079318;28;20231;-61
2024/01/14 09:17:01;;;;;;;68.20;24.13;;;0.80;99.90;;;;;;5083037;28;20187;-59
2024/01/14 09:19:29;;;;;;;62.17;25.13;;;0.90;99.90;;;;;;5082110;28;20195;-61
2024/01/14 09:21:58;;;;;;;70.73;25.73;;;0.90;99.90;;;;;;5079563;28;20233;-61
2024/01/14 09:24:26;;;;;;;61.47;24.73;;;0.90;99.90;;;;;;5086055;28;20310;-61
2024/01/14 09:26:55;;;;;;;60.83;24.90;;;0.90;99.90;;;;;;5085963;27;20211;-61
2024/01/14 09:29:23;;;;;;;61.13;24.30;;;0.80;99.90;;;;;;5082729;28;20311;-61
2024/01/14 09:31:52;;;;;;;61.40;24.33;;;0.90;99.90;;;;;;5079687;28;20283;-61
2024/01/14 09:34:22;;;;;;;71.83;25.90;;;0.90;99.90;;;;;;5097395;27;20218;-61
2024/01/14 09:36:50;;;;;;;60.10;24.47;;;1.00;99.90;;;;;;5088461;28;20223;-61
2024/01/14 09:39:18;;;;;;;64.77;25.03;;;1.00;99.90;;;;;;5079129;28;20304;-61
2024/01/14 09:41:57;;;;;;;64.90;25.07;;;1.00;99.90;;;;;;5086719;28;20551;-62
2024/01/14 09:44:25;;;;;;;58.43;24.50;;;1.00;99.90;;;;;;5085186;28;20239;-61
2024/01/14 09:46:55;;;;;;;58.90;23.37;;;1.10;99.90;;;;;;5081999;28;20220;-61
2024/01/14 09:49:25;;;;;;;59.63;24.00;;;1.10;99.90;;;;;;5085432;28;20221;-61
2024/01/14 09:51:55;;;;;;;55.30;23.73;;;1.10;99.90;;;;;;5080654;28;20224;-61
2024/01/14 09:54:23;;;;;;;56.30;22.90;;;1.10;99.90;;;;;;5085077;28;20230;-61
2024/01/14 09:56:53;;;;;;;56.57;22.83;;;1.10;99.90;;;;;;5082176;28;20247;-61
2024/01/14 09:59:22;;;;;;;55.77;21.63;;;1.10;99.90;;;;;;5086032;28;21263;-61
2024/01/14 10:01:52;;;;;;;53.07;21.83;;;1.20;99.90;;;;;;5082320;28;20583;-61
2024/01/14 10:04:21;;;;;;;50.80;21.17;;;1.20;99.90;;;;;;5083752;28;20215;-61
2024/01/14 10:06:51;;;;;;;53.70;21.53;;;1.20;99.90;;;;;;5087726;28;20237;-61
2024/01/14 10:09:21;;;;;;;58.03;21.57;;;1.20;99.90;;;;;;5081602;28;20261;-61
2024/01/14 10:11:50;;;;;;;55.10;21.47;;;1.30;99.90;;;;;;5084824;28;20817;-61
2024/01/14 10:14:19;;;;;;;50.97;21.50;;;1.30;99.90;;;;;;5085501;28;20283;-61
2024/01/14 10:16:47;;;;;;;55.23;22.20;;;1.30;99.90;;;;;;5077965;28;20303;-62
2024/01/14 10:19:22;;;;;;;54.33;22.00;;;1.30;99.90;;;;;;5083078;28;20277;-61
2024/01/14 10:21:54;;;;;;;46.80;20.87;;;1.30;99.90;;;;;;5082547;28;20302;-61
2024/01/14 10:24:42;;;;;;;48.83;19.63;;;1.30;99.90;;;;;;5082599;28;20234;-61
2024/01/14 10:27:11;;;;;;;54.37;21.53;;;1.30;99.90;;;;;;5076817;28;20305;-61
2024/01/14 10:29:39;;;;;;;53.40;21.50;;;1.30;99.90;;;;;;5079065;28;20250;-61
2024/01/14 10:32:09;;;;;;;67.30;26.93;;;1.30;99.90;;;;;;5079806;28;20191;-61
2024/01/14 10:34:38;;;;;;;57.27;23.57;;;1.30;99.90;;;;;;5080436;28;20791;-61
2024/01/14 10:37:07;;;;;;;61.50;23.93;;;1.30;99.90;;;;;;5075759;28;20225;-61
2024/01/14 10:39:36;;;;;;;56.43;23.03;;;1.30;99.90;;;;;;5075671;28;20296;-61
2024/01/14 10:42:05;;;;;;;60.00;25.63;;;1.40;99.90;;;;;;5080868;28;20227;-61
2024/01/14 10:44:34;;;;;;;62.23;25.80;;;1.40;99.90;;;;;;5076520;28;20227;-62
2024/01/14 10:47:08;;;;;;;54.33;23.27;;;1.40;99.90;;;;;;5079736;28;20839;-62
2024/01/14 10:49:43;;;;;;;56.07;22.97;;;1.50;99.90;;;;;;5081515;28;20815;-61
2024/01/14 10:52:17;;;;;;;59.37;22.47;;;1.50;99.90;;;;;;5081911;28;20227;-61
2024/01/14 10:54:49;;;;;;;51.43;21.70;;;1.50;99.90;;;;;;5076735;28;20218;-62
2024/01/14 10:57:30;;;;;;;58.17;22.43;;;1.50;99.90;;;;;;5079478;28;21266;-61
2024/01/14 11:00:05;;;;;;;57.13;23.20;;;1.40;99.90;;;;;;5078758;28;20276;-61
2024/01/14 11:02:35;;;;;;;57.50;23.43;;;1.40;99.90;;;;;;5079914;28;20888;-61
2024/01/14 11:05:07;;;;;;;58.53;22.60;;;1.40;99.90;;;;;;5071341;28;20308;-61
2024/01/14 11:07:37;;;;;;;56.60;23.27;;;1.30;99.90;;;;;;5082134;28;20737;-61
2024/01/14 11:10:10;;;;;;;52.77;22.20;;;1.30;99.90;;;;;;5078864;27;20223;-61
2024/01/14 11:12:45;;;;;;;55.63;23.17;;;1.30;99.90;;;;;;5082440;28;20218;-61
2024/01/14 11:15:19;;;;;;;55.47;22.63;;;1.30;99.90;;;;;;5076851;28;20230;-61
2024/01/14 11:17:57;;;;;;;57.80;23.00;;;1.30;99.90;;;;;;5075770;28;20230;-61
2024/01/14 11:20:29;;;;;;;55.33;22.17;;;1.30;99.90;;;;;;5075947;28;20250;-62
2024/01/14 11:23:10;;;;;;;53.67;22.63;;;1.30;99.90;;;;;;5076180;28;20274;-61
2024/01/14 11:25:44;;;;;;;56.13;24.07;;;1.40;99.90;;;;;;5078188;28;20199;-61
2024/01/14 11:28:13;;;;;;;53.00;23.60;;;1.40;99.90;;;;;;5076520;28;20284;-61
2024/01/14 11:30:50;;;;;;;56.27;22.97;;;1.40;99.90;;;;;;5069986;28;20947;-62
2024/01/14 11:33:28;;;;;;;56.70;22.23;;;1.40;99.90;;;;;;5078046;28;20586;-62
2024/01/14 11:35:56;;;;;;;55.03;21.87;;;1.40;99.90;;;;;;5075860;28;20302;-61
2024/01/14 11:38:37;;;;;;;52.13;21.70;;;1.50;99.90;;;;;;5081668;28;20223;-61
2024/01/14 11:41:24;;;;;;;55.43;22.10;;;1.40;99.90;;;;;;5078409;28;20199;-61
2024/01/14 11:43:53;;;;;;;52.67;21.07;;;1.30;99.90;;;;;;5091568;28;20265;-61
2024/01/14 11:46:39;;;;;;;51.27;19.87;;;1.20;99.90;;;;;;5078748;28;20227;-61
2024/01/14 11:49:11;;;;;;;55.80;22.13;;;1.10;99.90;;;;;;5082511;28;20211;-62
2024/01/14 11:51:57;;;;;;;53.20;20.67;;;1.10;99.90;;;;;;5081386;28;20212;-61
2024/01/14 11:54:28;;;;;;;48.63;20.63;;;1.10;99.90;;;;;;5081336;28;20246;-61
2024/01/14 11:56:57;;;;;;;51.67;20.90;;;1.20;99.90;;;;;;5081884;27;20326;-62
2024/01/14 11:59:25;;;;;;;50.10;20.80;;;1.20;99.90;;;;;;5084777;28;20223;-62
2024/01/14 12:02:16;;;;;;;50.10;20.47;;;1.20;99.90;;;;;;5082381;28;20198;-61
2024/01/14 12:04:54;;;;;;;51.50;20.47;;;1.20;99.90;;;;;;5077856;27;20640;-61
2024/01/14 12:07:35;;;;;;;50.63;20.33;;;1.10;99.90;;;;;;5055709;28;20294;-61
2024/01/14 12:10:03;;;;;;;39.20;17.97;;;1.00;99.90;;;;;;5072501;28;20223;-61
2024/01/14 12:12:37;;;;;;;54.97;20.90;;;1.00;99.90;;;;;;5078142;28;20577;-61
2024/01/14 12:15:06;;;;;;;46.63;19.03;;;0.90;99.90;;;;;;5072492;28;20216;-61
2024/01/14 12:17:34;;;;;;;49.40;20.50;;;0.90;99.90;;;;;;5075539;28;20574;-61
2024/01/14 12:20:05;;;;;;;50.53;20.50;;;0.90;99.90;;;;;;5074581;28;20271;-61
2024/01/14 12:22:35;;;;;;;52.20;21.10;;;0.90;99.90;;;;;;5072893;28;20196;-61
2024/01/14 12:25:04;;;;;;;54.87;21.10;;;0.90;99.90;;;;;;5072961;28;20223;-61
2024/01/14 12:27:32;;;;;;;47.07;19.13;;;0.80;99.90;;;;;;5073980;28;20223;-62
2024/01/14 12:30:00;;;;;;;51.70;21.47;;;0.90;99.90;;;;;;5076052;28;20821;-62
2024/01/14 12:32:34;;;;;;;45.20;20.53;;;0.90;99.90;;;;;;5069935;28;20591;-61
2024/01/14 12:35:04;;;;;;;50.10;20.10;;;0.90;99.90;;;;;;5074695;28;20935;-62
2024/01/14 12:37:32;;;;;;;61.77;25.20;;;0.90;99.90;;;;;;5076938;28;20204;-62
2024/01/14 12:40:01;;;;;;;55.30;24.57;;;0.90;99.90;;;;;;5065410;28;20223;-61
2024/01/14 12:42:29;;;;;;;56.97;22.77;;;1.00;99.90;;;;;;5072568;28;20223;-62
2024/01/14 12:45:01;;;;;;;49.77;21.07;;;1.00;99.90;;;;;;5071622;28;20220;-62
2024/01/14 12:47:30;;;;;;;54.23;22.60;;;1.10;99.90;;;;;;5077451;28;20232;-61